Flag for Germany

Past Weather in Brandenburg an der Havel, Brandenburg, Germany — Yesterday and Last 2 Weeks

Currently: 63 °F. Clear. (Weather station: Berlin-Schoenefeld, Germany). See more current weather

Past Weather in Brandenburg an der Havel — Graph

°F

Brandenburg an der Havel Temperature Yesterday

Maximum temperature yesterday: 77 °F (at 1:50 pm)
Minimum temperature yesterday: 54 °F (at 3:50 am)
Average temperature yesterday: 68 °F

High & Low Weather Summary for the Past Weeks

 TemperatureHumidityPressure
High82 °F (Jun 21, 1:50 pm)100% (Jun 11, 12:20 am)30.24 "Hg (Jun 11, 12:20 am)
Low45 °F (Jun 12, 3:20 am)32% (Jun 13, 6:50 pm)29.65 "Hg (Jun 10, 5:50 pm)
Average63 °F69%29.92 "Hg
* Reported Jun 9 10:20 pm — Jun 24 10:50 pm, Brandenburg an der Havel. Weather by CustomWeather, © 2024

Note: Actual official high and low records may vary slightly from our data, if they occured in-between our weather recording intervals... More about our weather records

Brandenburg an der Havel Weather History for the Previous 24 Hours

Scroll right to see more
 ConditionsComfort  
Time TempWeatherWind HumidityBarometerVisibility
10:50 pm
Mon, Jun 24
64 °FClear.5 mph73%30.09 "Hg10 mi
10:20 pm66 °FClear.3 mph68%30.09 "Hg10 mi
9:50 pm68 °FClear.5 mph64%30.09 "Hg10 mi
9:20 pm70 °FSunny.6 mph60%30.09 "Hg10 mi
8:50 pm72 °FSunny.5 mph57%30.09 "Hg10 mi
8:20 pm72 °FSunny.5 mph53%30.09 "Hg10 mi
7:50 pm73 °FPassing clouds.5 mph53%30.09 "HgN/A
7:20 pm77 °FSunny.1 mph44%30.09 "Hg10 mi
6:50 pm73 °FSunny.3 mph47%30.09 "Hg10 mi
6:20 pm73 °FSunny.2 mph50%30.09 "Hg10 mi
5:50 pm75 °FPassing clouds.6 mph44%30.09 "HgN/A
5:20 pm75 °FSunny.1 mph47%30.09 "Hg10 mi
4:50 pm77 °FSunny.2 mph44%30.09 "Hg10 mi
4:20 pm77 °FSunny.2 mph44%30.09 "Hg10 mi
3:50 pm75 °FPassing clouds.3 mph44%30.09 "HgN/A
3:20 pm75 °FSunny.2 mph47%30.12 "Hg10 mi
2:20 pm75 °FSunny.3 mph44%30.12 "Hg10 mi
1:50 pm77 °FSunny.3 mph47%30.12 "Hg10 mi
1:20 pm75 °FSunny.3 mph44%30.12 "Hg10 mi
12:50 pm73 °FPassing clouds.2 mph47%30.15 "HgN/A
12:20 pm70 °FScattered clouds.6 mph53%30.15 "HgN/A
11:50 am73 °FScattered clouds.5 mph50%30.15 "HgN/A
11:20 am70 °FPartly sunny.6 mph53%30.15 "HgN/A
10:50 am72 °FScattered clouds.3 mph50%30.15 "HgN/A
10:20 am72 °FPassing clouds.5 mph50%30.15 "HgN/A
9:50 am68 °FBroken clouds.3 mph60%30.15 "HgN/A
9:20 am68 °FScattered clouds.3 mph60%30.15 "HgN/A
8:50 am68 °FPartly sunny.5 mph60%30.15 "HgN/A
8:20 am66 °FPartly sunny.6 mph64%30.15 "HgN/A
7:50 am66 °FScattered clouds.6 mph64%30.15 "HgN/A
7:20 am66 °FSunny.1 mph73%30.12 "Hg10 mi
6:50 am63 °FPartly sunny.1 mph83%30.12 "HgN/A
6:20 am57 °FPartly sunny.1 mph94%30.12 "HgN/A
5:50 am55 °FScattered clouds.2 mph94%30.12 "HgN/A
5:20 am55 °FScattered clouds.1 mph94%30.12 "HgN/A
4:20 am57 °FPassing clouds.2 mph88%30.12 "HgN/A
3:50 am54 °FPassing clouds.1 mph94%30.12 "HgN/A
3:20 am57 °FClear.2 mph88%30.12 "Hg10 mi
2:50 am55 °FClear.2 mph88%30.12 "Hg10 mi
2:20 am59 °FClear.3 mph82%30.12 "Hg10 mi
1:50 am57 °FClear.3 mph88%30.09 "Hg10 mi
1:20 am59 °FClear.1 mph82%30.09 "Hg10 mi
Weather by CustomWeather, © 2024

See weather overview